Terminal Aerodrome Forecast
Issued by NWS

Home | Current Version | Previous Version | Text Only | Print | Product List | Glossary On
Versions: 1 2 3 4 5 6 7 8 9 10 11 12 13 14 15 16 17 18 19 20 21 22 23 24 25 26 27 28 29 30 31 32 33 34 35 36 37 38 39 40 41 42 43 44
258
FTUS43 KDMX 241738
TAFFOD
TAF
KFOD 241738Z 2418/2518 10010KT 1SM -SN BR OVC008
     FM242000 10013G19KT 4SM -SN BR OVC008
     FM250200 07013G20KT 1/2SM SN FZFG OVC003
     FM250600 04014G21KT 1SM -SN BR OVC004
     FM251100 35016G26KT 1SM -SN BLSN BR OVC004=

USA.gov is the U.S. government's official web portal to all federal, state and local government web resources and services.